Time;durP1;ratioP1;P1;durP2;ratioP2;P2;SDS_P1;SDS_P2;PMS_P1;PMS_P2;Temp;Humidity;BMP_temperature;BMP_pressure;BME280_temperature;BME280_humidity;BME280_pressure;Samples;Min_cycle;Max_cycle;Signal;HPM_P1;HPM_P2
2023/10/26 00:01:22;;;;;;;;;;;14.50;72.20;;;;;;5115667;28;20097;-70
2023/10/26 00:03:48;;;;;;;;;;;14.50;72.20;;;;;;5097321;28;19932;-70
2023/10/26 00:06:13;;;;;;;;;;;14.50;72.20;;;;;;5097523;28;19920;-70
2023/10/26 00:08:39;;;;;;;;;;;14.50;72.20;;;;;;5097402;28;19955;-70
2023/10/26 00:11:04;;;;;;;;;;;14.50;72.20;;;;;;5115742;28;19920;-70
2023/10/26 00:13:30;;;;;;;;;;;14.40;72.20;;;;;;5097299;28;19919;-70
2023/10/26 00:15:55;;;;;;;;;;;14.50;72.20;;;;;;5097061;28;19920;-70
2023/10/26 00:18:21;;;;;;;;;;;14.40;72.20;;;;;;5103887;28;19919;-70
2023/10/26 00:20:46;;;;;;;;;;;14.40;72.20;;;;;;5096991;28;19978;-71
2023/10/26 00:23:12;;;;;;;;;;;14.40;72.20;;;;;;5096878;28;19920;-70
2023/10/26 00:25:37;;;;;;;;;;;14.40;72.20;;;;;;5115253;28;20276;-70
2023/10/26 00:28:03;;;;;;;;;;;14.40;72.30;;;;;;5115213;28;20367;-70
2023/10/26 00:30:28;;;;;;;;;;;14.40;72.20;;;;;;5115250;28;19919;-70
2023/10/26 00:32:54;;;;;;;;;;;14.40;72.30;;;;;;5097038;28;20451;-71
2023/10/26 00:35:19;;;;;;;;;;;14.40;72.30;;;;;;5114924;28;19920;-70
2023/10/26 00:37:45;;;;;;;;;;;14.40;72.30;;;;;;5114989;28;19935;-70
2023/10/26 00:40:11;;;;;;;;;;;14.40;72.30;;;;;;5115137;28;20298;-70
2023/10/26 00:42:36;;;;;;;;;;;14.40;72.30;;;;;;5114909;27;19969;-70
2023/10/26 00:45:02;;;;;;;;;;;14.40;72.30;;;;;;5096601;28;19919;-70
2023/10/26 00:47:28;;;;;;;;;;;14.40;72.30;;;;;;5096455;28;20014;-70
2023/10/26 00:49:54;;;;;;;;;;;14.40;72.30;;;;;;5096814;28;19919;-70
2023/10/26 00:52:20;;;;;;;;;;;14.40;72.40;;;;;;5096328;28;20288;-70
2023/10/26 00:54:45;;;;;;;;;;;14.40;72.30;;;;;;5096400;28;19930;-70
2023/10/26 00:57:11;;;;;;;;;;;14.40;72.30;;;;;;5096632;28;19920;-70
2023/10/26 00:59:38;;;;;;;;;;;14.40;72.30;;;;;;5096290;28;19920;-70
2023/10/26 01:02:04;;;;;;;;;;;14.40;72.30;;;;;;5096157;28;20457;-70
2023/10/26 01:04:29;;;;;;;;;;;14.40;72.40;;;;;;5096388;28;19974;-70
2023/10/26 01:06:54;;;;;;;;;;;14.40;72.40;;;;;;5096395;28;19963;-70
2023/10/26 01:09:21;;;;;;;;;;;14.40;72.40;;;;;;5096026;28;20451;-70
2023/10/26 01:11:46;;;;;;;;;;;14.40;72.40;;;;;;5096362;28;19920;-70
2023/10/26 01:14:13;;;;;;;;;;;14.40;72.40;;;;;;5114377;28;19919;-70
2023/10/26 01:16:39;;;;;;;;;;;14.40;72.40;;;;;;5096266;28;19942;-70
2023/10/26 01:19:05;;;;;;;;;;;14.40;72.40;;;;;;5093716;28;20372;-71
2023/10/26 01:21:31;;;;;;;;;;;14.40;72.40;;;;;;5075472;28;20011;-71
2023/10/26 01:23:57;;;;;;;;;;;14.40;72.40;;;;;;5092441;28;20007;-71
2023/10/26 01:26:22;;;;;;;;;;;14.40;72.40;;;;;;5075604;28;19920;-70
2023/10/26 01:28:48;;;;;;;;;;;14.40;72.40;;;;;;5075430;28;19969;-70
2023/10/26 01:31:15;;;;;;;;;;;14.40;72.40;;;;;;5075745;28;19926;-71
2023/10/26 01:33:41;;;;;;;;;;;14.40;72.40;;;;;;5094008;28;19920;-72
2023/10/26 01:36:06;;;;;;;;;;;14.40;72.40;;;;;;5075249;28;20454;-71
2023/10/26 01:38:32;;;;;;;;;;;14.40;72.40;;;;;;5075202;28;19920;-70
2023/10/26 01:40:57;;;;;;;;;;;14.40;72.40;;;;;;5093279;28;20337;-70
2023/10/26 01:43:24;;;;;;;;;;;14.40;72.40;;;;;;5075242;28;19929;-70
2023/10/26 01:45:49;;;;;;;;;;;14.40;72.40;;;;;;5075156;28;19920;-70
2023/10/26 01:48:15;;;;;;;;;;;14.40;72.40;;;;;;5092021;28;19966;-70
2023/10/26 01:50:40;;;;;;;;;;;14.40;72.40;;;;;;5075370;28;19966;-70
2023/10/26 01:53:09;;;;;;;;;;;14.40;72.40;;;;;;5075223;28;19920;-70
2023/10/26 01:55:34;;;;;;;;;;;14.40;72.40;;;;;;5093348;28;19972;-70
2023/10/26 01:58:00;;;;;;;;;;;14.40;72.40;;;;;;5093128;28;19924;-70
2023/10/26 02:00:25;;;;;;;;;;;14.40;72.40;;;;;;5075081;28;19920;-71
2023/10/26 02:02:51;;;;;;;;;;;14.40;72.40;;;;;;5092964;28;19924;-70
2023/10/26 02:05:16;;;;;;;;;;;14.40;72.50;;;;;;5093013;28;19924;-70
2023/10/26 02:07:42;;;;;;;;;;;14.40;72.50;;;;;;5092871;28;19920;-71
2023/10/26 02:10:08;;;;;;;;;;;14.40;72.50;;;;;;5092826;28;19920;-71
2023/10/26 02:12:34;;;;;;;;;;;14.40;72.50;;;;;;5092644;28;19927;-70
2023/10/26 02:14:59;;;;;;;;;;;14.40;72.50;;;;;;5074955;28;20015;-70
2023/10/26 02:17:25;;;;;;;;;;;14.40;72.50;;;;;;5080866;28;19920;-70
2023/10/26 02:19:53;;;;;;;;;;;14.30;72.50;;;;;;5094803;28;19969;-71
2023/10/26 02:22:19;;;;;;;;;;;14.40;72.60;;;;;;5112963;28;19931;-71
2023/10/26 02:24:44;;;;;;;;;;;14.40;72.60;;;;;;5129155;27;20008;-70
2023/10/26 02:27:11;;;;;;;;;;;14.40;73.30;;;;;;5094981;28;20367;-70
2023/10/26 02:29:36;;;;;;;;;;;14.40;72.50;;;;;;5094745;28;20397;-70
2023/10/26 02:32:03;;;;;;;;;;;14.30;72.50;;;;;;5094919;28;19963;-70
2023/10/26 02:34:28;;;;;;;;;;;14.40;72.50;;;;;;5094656;28;19926;-71
2023/10/26 02:36:54;;;;;;;;;;;14.40;72.60;;;;;;5094563;28;19919;-70
2023/10/26 02:39:19;;;;;;;;;;;14.30;72.50;;;;;;5128606;27;19924;-70
2023/10/26 02:41:45;;;;;;;;;;;14.30;72.50;;;;;;5094407;28;19946;-70
2023/10/26 02:44:10;;;;;;;;;;;14.30;72.50;;;;;;5113033;28;19973;-70
2023/10/26 02:46:36;;;;;;;;;;;14.30;72.50;;;;;;5094512;28;19919;-70
2023/10/26 02:49:01;;;;;;;;;;;14.30;72.50;;;;;;5128912;28;19920;-70
2023/10/26 02:51:27;;;;;;;;;;;14.40;72.60;;;;;;5094718;28;20026;-71
2023/10/26 02:53:55;;;;;;;;;;;14.40;72.60;;;;;;5128578;28;19920;-70
2023/10/26 02:56:21;;;;;;;;;;;14.40;72.60;;;;;;5094399;28;20049;-71
2023/10/26 02:58:47;;;;;;;;;;;14.40;72.60;;;;;;5112687;28;19947;-70
2023/10/26 03:01:13;;;;;;;;;;;14.30;72.60;;;;;;5094466;28;19975;-70
2023/10/26 03:03:38;;;;;;;;;;;14.30;72.60;;;;;;5112686;28;19973;-70
2023/10/26 03:06:04;;;;;;;;;;;14.30;72.60;;;;;;5112637;28;19926;-70
2023/10/26 03:08:29;;;;;;;;;;;14.30;72.60;;;;;;5128409;28;19927;-70
2023/10/26 03:10:55;;;;;;;;;;;14.30;72.60;;;;;;5128660;28;20011;-70
2023/10/26 03:13:20;;;;;;;;;;;14.30;72.60;;;;;;5128265;28;19946;-70
2023/10/26 03:15:46;;;;;;;;;;;14.30;72.60;;;;;;5094526;28;19920;-70
2023/10/26 03:18:11;;;;;;;;;;;14.30;72.60;;;;;;5109387;28;19942;-71
2023/10/26 03:20:37;;;;;;;;;;;14.30;72.60;;;;;;5094581;28;20271;-71
2023/10/26 03:23:02;;;;;;;;;;;14.30;72.60;;;;;;5094100;28;19930;-71
2023/10/26 03:25:28;;;;;;;;;;;14.30;72.60;;;;;;5098388;28;20014;-70
2023/10/26 03:27:53;;;;;;;;;;;14.30;72.70;;;;;;5116253;28;20328;-70
2023/10/26 03:30:20;;;;;;;;;;;14.30;72.60;;;;;;5098351;28;20413;-71
2023/10/26 03:32:45;;;;;;;;;;;14.30;72.60;;;;;;5097931;28;20307;-70
2023/10/26 03:35:11;;;;;;;;;;;14.30;72.60;;;;;;5098204;28;19920;-70
2023/10/26 03:37:37;;;;;;;;;;;14.30;72.70;;;;;;5097890;28;20444;-70
2023/10/26 03:40:04;;;;;;;;;;;14.30;72.60;;;;;;5097799;28;19919;-70
2023/10/26 03:42:29;;;;;;;;;;;14.30;72.60;;;;;;5097649;28;19923;-70
2023/10/26 03:44:55;;;;;;;;;;;14.30;72.70;;;;;;5097718;28;20391;-70
2023/10/26 03:47:20;;;;;;;;;;;14.30;72.60;;;;;;5097967;28;19927;-70
2023/10/26 03:49:46;;;;;;;;;;;14.30;72.60;;;;;;5097908;28;19920;-71
2023/10/26 03:52:12;;;;;;;;;;;14.30;72.60;;;;;;5097592;28;19949;-70
2023/10/26 03:54:37;;;;;;;;;;;14.30;72.70;;;;;;5097541;28;19928;-70
2023/10/26 03:57:03;;;;;;;;;;;14.30;72.70;;;;;;5115862;28;19950;-70
2023/10/26 03:59:29;;;;;;;;;;;14.30;73.40;;;;;;5115844;28;19920;-70
2023/10/26 04:01:54;;;;;;;;;;;14.30;72.70;;;;;;5097586;28;19923;-70
2023/10/26 04:04:20;;;;;;;;;;;14.30;72.70;;;;;;5097388;28;19950;-70
2023/10/26 04:06:45;;;;;;;;;;;14.30;72.70;;;;;;5115667;28;19967;-70
2023/10/26 04:09:13;;;;;;;;;;;14.30;72.70;;;;;;5097509;28;19919;-70
2023/10/26 04:11:39;;;;;;;;;;;14.30;72.70;;;;;;5097234;28;19973;-70
2023/10/26 04:14:04;;;;;;;;;;;14.30;72.70;;;;;;5097163;28;19967;-70
2023/10/26 04:16:31;;;;;;;;;;;14.30;72.70;;;;;;5115446;28;19920;-70
2023/10/26 04:18:56;;;;;;;;;;;14.30;72.70;;;;;;5077853;28;19974;-71
2023/10/26 04:21:22;;;;;;;;;;;14.30;72.70;;;;;;5076783;28;19974;-71
2023/10/26 04:23:47;;;;;;;;;;;14.30;72.70;;;;;;5076786;28;19931;-70
2023/10/26 04:26:13;;;;;;;;;;;14.30;72.70;;;;;;5094775;28;19927;-70
2023/10/26 04:28:39;;;;;;;;;;;14.30;72.70;;;;;;5076718;28;19920;-70
2023/10/26 04:31:05;;;;;;;;;;;14.30;72.70;;;;;;5077148;28;19942;-71
2023/10/26 04:33:30;;;;;;;;;;;14.30;72.80;;;;;;5076916;28;20371;-71
2023/10/26 04:35:58;;;;;;;;;;;14.20;72.70;;;;;;5094254;28;20443;-70
2023/10/26 04:38:23;;;;;;;;;;;14.30;72.70;;;;;;5076548;28;19927;-70
2023/10/26 04:40:49;;;;;;;;;;;14.30;72.70;;;;;;5076309;28;19924;-70
2023/10/26 04:43:14;;;;;;;;;;;14.30;72.70;;;;;;5110412;28;20015;-70
2023/10/26 04:45:40;;;;;;;;;;;14.20;72.70;;;;;;5076302;28;20394;-70
2023/10/26 04:48:05;;;;;;;;;;;14.30;72.70;;;;;;5076555;28;20027;-71
2023/10/26 04:50:31;;;;;;;;;;;14.30;72.70;;;;;;5076128;28;20372;-71
2023/10/26 04:52:57;;;;;;;;;;;14.30;72.70;;;;;;5094390;28;19931;-70
2023/10/26 04:55:22;;;;;;;;;;;14.30;72.70;;;;;;5094315;28;19920;-70
2023/10/26 04:57:48;;;;;;;;;;;14.30;72.70;;;;;;5075877;28;19920;-70
2023/10/26 05:00:14;;;;;;;;;;;14.20;72.70;;;;;;5075921;28;19920;-70
2023/10/26 05:02:40;;;;;;;;;;;14.20;72.70;;;;;;5076014;28;19920;-70
2023/10/26 05:05:07;;;;;;;;;;;14.20;72.70;;;;;;5076280;28;19924;-70
2023/10/26 05:07:32;;;;;;;;;;;14.20;72.70;;;;;;5076081;28;19927;-70
2023/10/26 05:09:59;;;;;;;;;;;14.30;72.70;;;;;;5075790;28;19920;-70
2023/10/26 05:12:24;;;;;;;;;;;14.30;72.70;;;;;;5093758;28;19927;-70
2023/10/26 05:14:49;;;;;;;;;;;14.20;72.70;;;;;;5093969;28;20367;-70
2023/10/26 05:17:15;;;;;;;;;;;14.30;72.70;;;;;;5093801;28;19966;-70
2023/10/26 05:19:40;;;;;;;;;;;14.30;72.70;;;;;;5093833;28;19920;-71
2023/10/26 05:22:06;;;;;;;;;;;14.20;72.70;;;;;;5075505;28;19920;-71
2023/10/26 05:24:32;;;;;;;;;;;14.20;72.70;;;;;;5093776;28;20302;-71
2023/10/26 05:26:58;;;;;;;;;;;14.20;72.70;;;;;;5075719;28;20333;-70
2023/10/26 05:29:23;;;;;;;;;;;14.20;72.70;;;;;;5075621;28;19922;-70
2023/10/26 05:31:49;;;;;;;;;;;14.30;72.80;;;;;;5075628;28;19920;-71
2023/10/26 05:34:14;;;;;;;;;;;14.20;72.70;;;;;;5075515;28;19960;-71
2023/10/26 05:36:40;;;;;;;;;;;14.20;72.70;;;;;;5075317;28;19920;-70
2023/10/26 05:39:06;;;;;;;;;;;14.20;72.70;;;;;;5093466;28;19924;-70
2023/10/26 05:41:32;;;;;;;;;;;14.20;72.80;;;;;;5097543;28;20423;-70
2023/10/26 05:43:59;;;;;;;;;;;14.20;72.70;;;;;;5113701;28;19920;-70
2023/10/26 05:46:24;;;;;;;;;;;14.20;72.70;;;;;;5095095;28;20282;-70
2023/10/26 05:48:50;;;;;;;;;;;14.20;72.70;;;;;;5095326;28;19920;-70
2023/10/26 05:51:15;;;;;;;;;;;14.20;72.80;;;;;;5095657;28;19919;-70
2023/10/26 05:53:41;;;;;;;;;;;14.20;72.80;;;;;;5113565;28;19949;-70
2023/10/26 05:56:07;;;;;;;;;;;14.20;72.80;;;;;;5113502;28;19974;-70
2023/10/26 05:58:32;;;;;;;;;;;14.20;72.80;;;;;;5095514;28;19949;-70
2023/10/26 06:00:58;;;;;;;;;;;14.20;72.80;;;;;;5095073;28;19920;-70
2023/10/26 06:03:24;;;;;;;;;;;14.20;72.80;;;;;;5095118;28;19920;-70
2023/10/26 06:05:49;;;;;;;;;;;14.20;72.80;;;;;;5095086;28;20334;-70
2023/10/26 06:08:15;;;;;;;;;;;14.20;72.80;;;;;;5095243;28;20014;-70
2023/10/26 06:10:40;;;;;;;;;;;14.20;72.80;;;;;;5113354;28;19923;-70
2023/10/26 06:13:09;;;;;;;;;;;14.20;72.80;;;;;;5113197;28;19923;-70
2023/10/26 06:15:35;;;;;;;;;;;14.20;72.80;;;;;;5094808;28;20446;-71
2023/10/26 06:18:00;;;;;;;;;;;14.20;72.70;;;;;;5083796;28;20016;-70
2023/10/26 06:20:28;;;;;;;;;;;14.20;72.80;;;;;;5129292;27;19920;-71
2023/10/26 06:22:54;;;;;;;;;;;14.20;72.70;;;;;;5094676;28;19945;-71
2023/10/26 06:25:20;;;;;;;;;;;14.20;72.70;;;;;;5078274;28;19919;-70
2023/10/26 06:27:47;;;;;;;;;;;14.20;72.70;;;;;;5094758;28;19934;-70
2023/10/26 06:30:14;;;;;;;;;;;14.20;72.70;;;;;;5094864;28;20060;-71
2023/10/26 06:32:40;;;;;;;;;;;14.20;72.70;;;;;;5095036;28;20083;-71
2023/10/26 06:35:06;;;;;;;;;;;14.20;72.70;;;;;;5094886;28;20418;-70
2023/10/26 06:37:31;;;;;;;;;;;14.20;72.70;;;;;;5094563;28;19919;-70
2023/10/26 06:39:57;;;;;;;;;;;14.20;72.70;;;;;;5094838;28;19930;-70
2023/10/26 06:42:22;;;;;;;;;;;14.20;72.70;;;;;;5077644;28;20007;-70
2023/10/26 06:44:48;;;;;;;;;;;14.20;72.70;;;;;;5108024;28;19934;-70
2023/10/26 06:47:14;;;;;;;;;;;14.10;72.70;;;;;;5074608;28;19920;-70
2023/10/26 06:49:41;;;;;;;;;;;14.10;72.70;;;;;;5074543;28;19920;-70
2023/10/26 06:52:07;;;;;;;;;;;14.10;72.70;;;;;;5092573;28;19920;-70
2023/10/26 06:54:32;;;;;;;;;;;14.10;72.70;;;;;;5074172;28;20003;-70
2023/10/26 06:56:58;;;;;;;;;;;14.10;72.70;;;;;;5074480;28;20272;-70
2023/10/26 06:59:23;;;;;;;;;;;14.10;72.70;;;;;;5078450;28;19975;-70
2023/10/26 07:01:49;;;;;;;;;;;14.10;72.70;;;;;;5112074;28;20386;-70
2023/10/26 07:04:14;;;;;;;;;;;14.10;72.60;;;;;;5096508;28;19920;-70
2023/10/26 07:06:40;;;;;;;;;;;14.10;72.70;;;;;;5112624;28;20379;-71
2023/10/26 07:09:06;;;;;;;;;;;14.10;72.60;;;;;;5096463;28;19920;-70
2023/10/26 07:11:31;;;;;;;;;;;14.20;72.70;;;;;;5096235;28;20010;-70
2023/10/26 07:13:57;;;;;;;;;;;14.10;72.60;;;;;;5078035;28;19943;-70
2023/10/26 07:16:22;;;;;;;;;;;14.10;72.60;;;;;;5096060;28;19920;-70
2023/10/26 07:18:48;;;;;;;;;;;14.10;72.60;;;;;;5111731;28;19924;-71
2023/10/26 07:21:13;;;;;;;;;;;14.10;72.60;;;;;;5078044;28;19924;-71
2023/10/26 07:23:38;;;;;;;;;;;14.10;72.60;;;;;;5078189;28;20292;-71
2023/10/26 07:26:04;;;;;;;;;;;14.10;72.60;;;;;;5078068;28;19963;-70
2023/10/26 07:28:29;;;;;;;;;;;14.10;72.60;;;;;;5078290;28;20390;-70
2023/10/26 07:30:55;;;;;;;;;;;14.10;73.30;;;;;;5077686;28;20371;-71
2023/10/26 07:33:20;;;;;;;;;;;14.10;72.50;;;;;;5077737;28;19927;-71
2023/10/26 07:35:50;;;;;;;;;;;14.10;72.50;;;;;;5077865;28;19927;-70
2023/10/26 07:38:16;;;;;;;;;;;14.10;72.60;;;;;;5077882;28;19927;-70
2023/10/26 07:40:47;;;;;;;;;;;14.10;72.60;;;;;;5082566;27;19920;-70
2023/10/26 07:43:13;;;;;;;;;;;14.10;72.60;;;;;;5136987;27;19930;-70
2023/10/26 07:45:38;;;;;;;;;;;14.10;72.60;;;;;;5152609;27;19919;-70
2023/10/26 07:48:04;;;;;;;;;;;14.10;72.60;;;;;;5152573;27;19919;-70
2023/10/26 07:50:29;;;;;;;;;;;14.10;72.60;;;;;;5136749;27;19920;-70
2023/10/26 07:52:55;;;;;;;;;;;14.10;72.60;;;;;;5152788;27;19927;-70
2023/10/26 07:55:20;;;;;;;;;;;14.10;72.60;;;;;;5152716;27;19967;-70
2023/10/26 07:57:46;;;;;;;;;;;14.10;72.60;;;;;;5117912;27;19919;-70
2023/10/26 08:00:12;;;;;;;;;;;14.10;72.60;;;;;;5152602;27;19923;-70
2023/10/26 08:02:40;;;;;;;;;;;14.10;72.50;;;;;;5117756;27;20370;-70
2023/10/26 08:05:06;;;;;;;;;;;14.10;72.60;;;;;;5117923;27;19924;-70
2023/10/26 08:07:32;;;;;;;;;;;14.10;72.60;;;;;;5118068;27;19926;-70
2023/10/26 08:09:57;;;;;;;;;;;14.10;72.60;;;;;;5151826;27;20029;-70
2023/10/26 08:12:23;;;;;;;;;;;14.10;72.50;;;;;;5136132;27;19919;-70
2023/10/26 08:14:53;;;;;;;;;;;14.10;72.50;;;;;;5136107;27;19919;-70
2023/10/26 08:17:19;;;;;;;;;;;14.10;72.50;;;;;;5135854;27;20012;-71
2023/10/26 08:19:44;;;;;;;;;;;14.10;72.50;;;;;;5135993;27;20278;-71
2023/10/26 08:22:10;;;;;;;;;;;14.10;72.50;;;;;;5117409;27;19923;-71
2023/10/26 08:24:36;;;;;;;;;;;14.10;72.50;;;;;;5117733;27;20053;-70
2023/10/26 08:27:01;;;;;;;;;;;14.20;72.60;;;;;;5135763;27;20363;-70
2023/10/26 08:29:28;;;;;;;;;;;14.20;72.60;;;;;;5117331;27;19923;-70
2023/10/26 08:31:53;;;;;;;;;;;14.10;72.50;;;;;;5117657;27;19919;-70
2023/10/26 08:34:19;;;;;;;;;;;14.20;72.60;;;;;;5117440;27;20644;-71
2023/10/26 08:36:46;;;;;;;;;;;14.20;72.60;;;;;;5117283;27;20378;-70
2023/10/26 08:39:12;;;;;;;;;;;14.10;72.50;;;;;;5117135;27;20010;-70
2023/10/26 08:41:38;;;;;;;;;;;14.20;72.60;;;;;;5116540;27;19927;-70
2023/10/26 08:44:04;;;;;;;;;;;14.20;72.60;;;;;;5151894;27;19919;-70
2023/10/26 08:46:29;;;;;;;;;;;14.20;72.60;;;;;;5117073;27;20011;-71
2023/10/26 08:48:56;;;;;;;;;;;14.20;72.50;;;;;;5116865;27;19928;-70
2023/10/26 08:51:22;;;;;;;;;;;14.10;72.50;;;;;;5135555;27;19987;-78
2023/10/26 08:53:47;;;;;;;;;;;14.10;72.50;;;;;;5115913;27;20436;-77
2023/10/26 08:56:15;;;;;;;;;;;14.30;72.70;;;;;;5116901;27;19920;-80
2023/10/26 08:58:41;;;;;;;;;;;14.30;73.20;;;;;;5116843;27;19919;-82
2023/10/26 09:01:07;;;;;;;;;;;14.40;73.50;;;;;;5116901;27;19923;-81
2023/10/26 09:03:33;;;;;;;;;;;14.50;73.80;;;;;;5134812;27;19941;-80
2023/10/26 09:05:58;;;;;;;;;;;14.50;73.80;;;;;;5116873;27;19942;-78
2023/10/26 09:08:27;;;;;;;;;;;14.60;73.90;;;;;;5116839;27;20010;-78
2023/10/26 09:10:52;;;;;;;;;;;14.70;73.80;;;;;;5116430;27;19919;-73
2023/10/26 09:13:26;;;;;;;;;;;14.70;73.70;;;;;;5116631;27;20000;-73
2023/10/26 09:15:53;;;;;;;;;;;14.70;73.70;;;;;;5133002;27;19923;-72
2023/10/26 09:18:19;;;;;;;;;;;14.70;73.60;;;;;;5115720;27;19919;-73
2023/10/26 09:21:01;;;;;;;;;;;14.70;73.60;;;;;;5115219;28;19942;-72
2023/10/26 09:23:27;;;;;;;;;;;14.60;73.60;;;;;;5113522;27;19968;-72
2023/10/26 09:25:55;;;;;;;;;;;14.60;73.60;;;;;;5115987;27;19965;-73
2023/10/26 09:28:20;;;;;;;;;;;14.60;73.60;;;;;;5115645;27;20026;-74
2023/10/26 09:30:46;;;;;;;;;;;14.60;73.50;;;;;;5115890;27;20018;-73
2023/10/26 09:33:27;;;;;;;;;;;14.60;73.50;;;;;;5150332;27;20278;-74
2023/10/26 09:35:52;;;;;;;;;;;14.60;73.60;;;;;;5115965;27;19945;-73
2023/10/26 09:38:35;;;;;;;;;;;14.60;73.50;;;;;;5134196;27;19919;-73
2023/10/26 09:41:01;;;;;;;;;;;14.60;73.50;;;;;;5115584;27;19930;-74
2023/10/26 09:43:27;;;;;;;;;;;14.60;73.50;;;;;;5115760;27;19923;-73
2023/10/26 09:45:52;;;;;;;;;;;14.50;73.40;;;;;;5116108;27;19961;-73
2023/10/26 09:48:18;;;;;;;;;;;14.50;73.50;;;;;;5134660;27;20307;-73
2023/10/26 09:50:45;;;;;;;;;;;14.50;73.40;;;;;;5114800;27;20443;-73
2023/10/26 09:53:11;;;;;;;;;;;14.50;73.40;;;;;;5115770;27;19919;-73
2023/10/26 09:55:37;;;;;;;;;;;14.50;73.40;;;;;;5133486;27;19982;-73
2023/10/26 09:58:04;;;;;;;;;;;14.50;73.30;;;;;;5115850;27;20003;-72
2023/10/26 10:00:32;;;;;;;;;;;14.50;73.30;;;;;;5115807;27;19923;-72
2023/10/26 10:03:17;;;;;;;;;;;14.50;73.40;;;;;;5114311;27;19955;-72
2023/10/26 10:05:44;;;;;;;;;;;14.50;73.30;;;;;;5115454;27;19927;-72
2023/10/26 10:08:09;;;;;;;;;;;14.50;73.30;;;;;;5115588;27;20023;-74
2023/10/26 10:10:35;;;;;;;;;;;14.50;74.00;;;;;;5115304;27;19962;-73
2023/10/26 10:13:01;;;;;;;;;;;14.50;73.30;;;;;;5115615;27;19931;-72
2023/10/26 10:15:35;;;;;;;;;;;14.50;73.30;;;;;;5115537;27;19992;-73
2023/10/26 10:18:02;;;;;;;;;;;14.50;73.30;;;;;;5115237;27;19931;-73
2023/10/26 10:20:29;;;;;;;;;;;14.50;73.20;;;;;;5115609;27;19958;-74
2023/10/26 10:22:58;;;;;;;;;;;14.50;73.20;;;;;;5115108;27;19959;-73
2023/10/26 10:25:43;;;;;;;;;;;14.50;73.20;;;;;;5115459;27;20298;-73
2023/10/26 10:28:09;;;;;;;;;;;14.50;73.20;;;;;;5149258;27;20010;-73
2023/10/26 10:30:48;;;;;;;;;;;14.50;73.20;;;;;;5114514;27;19920;-73
2023/10/26 10:33:21;;;;;;;;;;;14.50;73.20;;;;;;5113656;27;20399;-73
2023/10/26 10:35:50;;;;;;;;;;;14.50;73.00;;;;;;5114808;28;19973;-74
2023/10/26 10:38:17;;;;;;;;;;;14.60;72.90;;;;;;5114979;27;20274;-72
2023/10/26 10:46:21;;;;;;;;;;;14.60;72.70;;;;;;5110819;27;19912;-71
2023/10/26 10:49:07;;;;;;;;;;;14.60;72.60;;;;;;5110121;28;20330;-72
2023/10/26 10:51:34;;;;;;;;;;;14.60;72.60;;;;;;5108776;28;19939;-72
2023/10/26 10:54:00;;;;;;;;;;;14.60;72.50;;;;;;5109115;28;19966;-71
2023/10/26 10:56:25;;;;;;;;;;;14.60;72.50;;;;;;5108861;28;19920;-71
2023/10/26 10:58:52;;;;;;;;;;;14.60;72.50;;;;;;5110042;28;19943;-70
2023/10/26 11:01:19;;;;;;;;;;;14.60;72.50;;;;;;5107802;28;20375;-71
2023/10/26 11:03:45;;;;;;;;;;;14.60;72.50;;;;;;5107964;28;20418;-73
2023/10/26 11:06:15;;;;;;;;;;;14.60;72.90;;;;;;5106539;28;19924;-71
2023/10/26 11:08:40;;;;;;;;;;;14.80;73.40;;;;;;5108808;28;19985;-74
2023/10/26 11:11:06;;;;;;;;;;;15.20;73.20;;;;;;5108492;28;20541;-69
2023/10/26 11:13:31;;;;;;;;;;;15.60;72.40;;;;;;5108700;28;19928;-71
2023/10/26 11:15:57;;;;;;;;;;;16.00;71.30;;;;;;5109101;28;19927;-72
2023/10/26 11:18:22;;;;;;;;;;;16.60;69.90;;;;;;5107257;28;20015;-72
2023/10/26 11:20:48;;;;;;;;;;;17.20;68.20;;;;;;5106709;28;19988;-71
2023/10/26 11:23:14;;;;;;;;;;;17.90;66.50;;;;;;5107730;28;19920;-74
2023/10/26 11:25:40;;;;;;;;;;;18.50;64.80;;;;;;5108415;28;19973;-77
2023/10/26 11:28:06;;;;;;;;;;;19.00;63.10;;;;;;5108101;28;19924;-78
2023/10/26 11:30:48;;;;;;;;;;;19.40;61.70;;;;;;5108069;28;19931;-77
2023/10/26 11:33:29;;;;;;;;;;;19.70;60.80;;;;;;5108512;28;19980;-73
2023/10/26 11:35:55;;;;;;;;;;;19.80;60.90;;;;;;5108456;28;19927;-75
2023/10/26 11:38:20;;;;;;;;;;;19.90;59.90;;;;;;5107976;28;19939;-76
2023/10/26 11:40:46;;;;;;;;;;;20.10;59.40;;;;;;5090127;28;19927;-76
2023/10/26 11:43:11;;;;;;;;;;;20.30;58.70;;;;;;5107084;28;19924;-71
2023/10/26 11:45:52;;;;;;;;;;;20.60;58.10;;;;;;5107050;28;19939;-74
2023/10/26 11:48:33;;;;;;;;;;;20.80;57.50;;;;;;5107910;28;20003;-74
2023/10/26 11:50:58;;;;;;;;;;;20.90;57.10;;;;;;5108135;28;20268;-73
2023/10/26 11:53:26;;;;;;;;;;;21.10;56.60;;;;;;5109000;28;19927;-74
2023/10/26 11:55:52;;;;;;;;;;;21.20;56.20;;;;;;5104434;28;19920;-73
2023/10/26 11:58:18;;;;;;;;;;;21.30;55.80;;;;;;5095766;28;19920;-75
2023/10/26 12:00:43;;;;;;;;;;;21.50;55.60;;;;;;5094368;28;20279;-75
2023/10/26 12:03:09;;;;;;;;;;;21.60;55.00;;;;;;5095279;28;19920;-75
2023/10/26 12:05:35;;;;;;;;;;;21.70;54.70;;;;;;5093864;28;19977;-72
2023/10/26 12:08:01;;;;;;;;;;;21.90;54.30;;;;;;5093927;28;19920;-72
2023/10/26 12:10:26;;;;;;;;;;;21.80;54.10;;;;;;5093317;28;20058;-72
2023/10/26 12:12:52;;;;;;;;;;;21.80;54.10;;;;;;5097327;28;19927;-75
2023/10/26 12:15:18;;;;;;;;;;;21.60;54.50;;;;;;5094966;28;19920;-72
2023/10/26 12:17:44;;;;;;;;;;;21.50;54.60;;;;;;5093957;28;19942;-71
2023/10/26 12:20:11;;;;;;;;;;;21.40;55.70;;;;;;5093929;28;19920;-73
2023/10/26 12:22:36;;;;;;;;;;;21.30;55.20;;;;;;5093270;28;20454;-76
2023/10/26 12:25:04;;;;;;;;;;;21.10;55.40;;;;;;5093939;28;20018;-72
2023/10/26 12:27:30;;;;;;;;;;;21.00;55.60;;;;;;5093517;28;19924;-72
2023/10/26 12:29:55;;;;;;;;;;;20.80;56.10;;;;;;5094770;28;19920;-70
2023/10/26 12:32:21;;;;;;;;;;;20.70;56.60;;;;;;5087536;28;20015;-70
2023/10/26 12:34:47;;;;;;;;;;;20.50;56.90;;;;;;5093164;28;19924;-71
2023/10/26 12:37:12;;;;;;;;;;;20.40;57.30;;;;;;5093251;28;19920;-70
2023/10/26 12:39:38;;;;;;;;;;;20.20;57.50;;;;;;5093591;28;19920;-70
2023/10/26 12:42:03;;;;;;;;;;;20.20;57.90;;;;;;5093289;28;20365;-70
2023/10/26 12:44:29;;;;;;;;;;;20.10;58.10;;;;;;5093055;28;19982;-70
2023/10/26 12:46:55;;;;;;;;;;;19.90;58.40;;;;;;5127202;27;20014;-70
2023/10/26 12:49:21;;;;;;;;;;;19.80;58.70;;;;;;5093319;28;19924;-71
2023/10/26 12:51:47;;;;;;;;;;;19.70;58.90;;;;;;5093215;28;19943;-70
2023/10/26 12:54:13;;;;;;;;;;;19.60;59.30;;;;;;5094144;28;20383;-70
2023/10/26 12:56:38;;;;;;;;;;;19.40;59.50;;;;;;5093150;28;19927;-71
2023/10/26 12:59:04;;;;;;;;;;;19.30;59.80;;;;;;5126913;27;19926;-71
2023/10/26 13:01:29;;;;;;;;;;;19.20;60.00;;;;;;5092681;28;19920;-70
2023/10/26 13:03:55;;;;;;;;;;;19.10;60.30;;;;;;5127120;27;19920;-70
2023/10/26 13:06:20;;;;;;;;;;;19.00;60.50;;;;;;5092868;28;20283;-71
2023/10/26 13:08:46;;;;;;;;;;;18.80;60.70;;;;;;5091630;28;19927;-70
2023/10/26 13:11:12;;;;;;;;;;;18.70;60.90;;;;;;5126718;27;19985;-71
2023/10/26 13:13:38;;;;;;;;;;;18.60;61.10;;;;;;5092884;28;19920;-70
2023/10/26 13:16:08;;;;;;;;;;;18.50;61.50;;;;;;5092553;28;20286;-70
2023/10/26 13:18:34;;;;;;;;;;;18.40;61.70;;;;;;5092584;28;20325;-71
2023/10/26 13:21:00;;;;;;;;;;;18.30;62.00;;;;;;5092771;28;19920;-71
2023/10/26 13:23:25;;;;;;;;;;;18.20;62.20;;;;;;5092265;28;19920;-71
2023/10/26 13:25:51;;;;;;;;;;;18.20;62.50;;;;;;5093565;28;19928;-70
2023/10/26 13:28:16;;;;;;;;;;;18.10;62.70;;;;;;5092447;28;20286;-71
2023/10/26 13:30:42;;;;;;;;;;;18.00;62.80;;;;;;5092165;28;19924;-71
2023/10/26 13:33:07;;;;;;;;;;;17.90;63.10;;;;;;5092436;28;19920;-71
2023/10/26 13:35:33;;;;;;;;;;;17.90;63.20;;;;;;5092164;28;19927;-71
2023/10/26 13:37:58;;;;;;;;;;;17.80;63.30;;;;;;5093409;28;19964;-71
2023/10/26 13:40:24;;;;;;;;;;;17.80;63.50;;;;;;5092370;28;19920;-70
2023/10/26 13:42:50;;;;;;;;;;;17.80;63.60;;;;;;5092157;28;20436;-71
2023/10/26 13:45:16;;;;;;;;;;;17.70;63.60;;;;;;5104809;28;19930;-71
2023/10/26 13:47:41;;;;;;;;;;;17.70;63.70;;;;;;5113612;28;19949;-70
2023/10/26 13:50:07;;;;;;;;;;;17.70;63.80;;;;;;5095367;28;19926;-70
2023/10/26 13:52:33;;;;;;;;;;;17.60;63.90;;;;;;5095450;28;19966;-71
2023/10/26 13:54:58;;;;;;;;;;;17.60;63.90;;;;;;5095536;28;19919;-70
2023/10/26 13:57:24;;;;;;;;;;;17.60;64.10;;;;;;5113347;28;20006;-70
2023/10/26 13:59:49;;;;;;;;;;;17.50;64.10;;;;;;5113440;28;19920;-70
2023/10/26 14:02:19;;;;;;;;;;;17.50;64.10;;;;;;5113433;28;19963;-71
2023/10/26 14:04:45;;;;;;;;;;;17.50;64.30;;;;;;5095095;28;19928;-71
2023/10/26 14:07:11;;;;;;;;;;;17.40;64.30;;;;;;5095252;28;20350;-71
2023/10/26 14:09:36;;;;;;;;;;;17.40;64.40;;;;;;5113506;28;19963;-70
2023/10/26 14:12:02;;;;;;;;;;;17.40;64.50;;;;;;5113244;28;19930;-71
2023/10/26 14:14:29;;;;;;;;;;;17.40;64.60;;;;;;5095107;28;20390;-70
2023/10/26 14:16:54;;;;;;;;;;;17.30;64.60;;;;;;5094730;28;19919;-71